createdAt,value
2023-03-08T00:00:15.680Z,1016.483223
2023-03-08T00:05:15.866Z,1016.485670
2023-03-08T00:10:16.797Z,1016.504738
2023-03-08T00:15:16.382Z,1016.508091
2023-03-08T00:20:16.227Z,1016.489575
2023-03-08T00:25:17.351Z,1016.485157
2023-03-08T00:30:15.723Z,1016.401723
2023-03-08T00:35:15.670Z,1016.461843
2023-03-08T00:40:16.299Z,1016.503024
2023-03-08T00:45:15.647Z,1016.543258
2023-03-08T00:50:15.903Z,1016.586157
2023-03-08T00:55:15.714Z,1016.798568
2023-03-08T01:00:16.449Z,1016.823425
2023-03-08T01:05:16.326Z,1016.965781
2023-03-08T01:10:15.668Z,1016.945975
2023-03-08T01:15:16.043Z,1017.026281
2023-03-08T01:20:15.920Z,1017.005498
2023-03-08T01:25:16.307Z,1016.985331
2023-03-08T01:30:15.778Z,1017.108311
2023-03-08T01:35:15.824Z,1017.149394
2023-03-08T01:40:16.395Z,1017.251209
2023-03-08T01:45:16.334Z,1017.213045
2023-03-08T01:50:17.061Z,1017.213978
2023-03-08T01:55:15.949Z,1017.155132
2023-03-08T02:00:15.572Z,1017.096452
2023-03-08T02:05:17.433Z,1017.097357
2023-03-08T02:10:16.429Z,1017.057468
2023-03-08T02:15:17.092Z,1017.117397
2023-03-08T02:20:16.143Z,1017.138167
2023-03-08T02:25:16.512Z,1017.138327
2023-03-08T02:30:15.509Z,1017.277164
2023-03-08T02:35:16.866Z,1017.337758
2023-03-08T02:40:16.594Z,1017.296097
2023-03-08T02:45:16.476Z,1017.256250
2023-03-08T02:50:16.212Z,1017.276385
2023-03-08T02:55:16.520Z,1017.256380
2023-03-08T03:00:15.483Z,1017.179179
2023-03-08T03:05:16.589Z,1017.122111
2023-03-08T03:10:17.528Z,1017.162365
2023-03-08T03:15:15.966Z,1017.222068
2023-03-08T03:20:16.014Z,1017.202291
2023-03-08T03:25:15.874Z,1017.238395
2023-03-08T03:30:16.552Z,1017.218573
2023-03-08T03:35:17.433Z,1017.142241
2023-03-08T03:40:16.754Z,1017.183372
2023-03-08T03:45:17.316Z,1017.101294
2023-03-08T03:50:15.979Z,1017.099715
2023-03-08T03:55:16.342Z,1017.163687
2023-03-08T04:00:16.451Z,1017.165093
2023-03-08T04:05:16.052Z,1017.146855
2023-03-08T04:10:15.727Z,1017.107418
2023-03-08T04:15:16.611Z,1017.205155
2023-03-08T04:20:16.093Z,1017.225467
2023-03-08T04:25:16.904Z,1017.225539
2023-03-08T04:30:15.874Z,1017.207125
2023-03-08T04:35:15.842Z,1017.168576
2023-03-08T04:40:17.069Z,1017.191735
2023-03-08T04:45:15.794Z,1017.172021
2023-03-08T04:50:16.093Z,1017.250715
2023-03-08T04:55:16.208Z,1017.269094
2023-03-08T05:00:15.999Z,1017.308650
2023-03-08T05:05:15.990Z,1017.270762
2023-03-08T05:10:15.724Z,1017.230179
2023-03-08T05:15:17.451Z,1017.310065
2023-03-08T05:20:17.521Z,1017.289170
2023-03-08T05:25:16.205Z,1017.250225
2023-03-08T05:30:16.772Z,1017.271316
2023-03-08T05:35:15.673Z,1017.292294
2023-03-08T05:40:16.117Z,1017.292837
2023-03-08T05:45:16.343Z,1017.252323
2023-03-08T05:50:16.211Z,1017.273232
2023-03-08T05:55:16.122Z,1017.276794
2023-03-08T06:00:16.782Z,1017.240180
2023-03-08T06:05:15.792Z,1017.159451
2023-03-08T06:10:15.997Z,1017.178847
2023-03-08T06:15:16.630Z,1017.118039
2023-03-08T06:20:16.272Z,1017.037679
2023-03-08T06:25:15.648Z,1016.958348
2023-03-08T06:30:15.730Z,1016.961030
2023-03-08T06:35:15.518Z,1016.941311
2023-03-08T06:40:16.887Z,1016.900915
2023-03-08T06:45:15.891Z,1016.840670
2023-03-08T06:50:16.756Z,1016.800764
2023-03-08T06:55:16.267Z,1016.760426
2023-03-08T07:00:16.739Z,1016.700286
2023-03-08T07:05:15.942Z,1016.660101
2023-03-08T07:10:16.306Z,1016.701290
2023-03-08T07:15:15.652Z,1016.663560
2023-03-08T07:20:17.081Z,1016.645010
2023-03-08T07:25:15.507Z,1016.583041
2023-03-08T07:30:15.718Z,1016.661929
2023-03-08T07:35:15.622Z,1016.661284
2023-03-08T07:40:16.142Z,1016.560823
2023-03-08T07:45:16.332Z,1016.581427
2023-03-08T07:50:16.114Z,1016.487492
2023-03-08T07:55:16.274Z,1016.428262
2023-03-08T08:00:15.744Z,1016.449059
2023-03-08T08:05:16.020Z,1016.389036
2023-03-08T08:10:16.219Z,1016.326206
2023-03-08T08:15:16.014Z,1016.304769
2023-03-08T08:20:16.091Z,1016.264801
2023-03-08T08:25:16.452Z,1016.241851
2023-03-08T08:30:16.325Z,1016.242925
2023-03-08T08:35:16.085Z,1016.164518
2023-03-08T08:40:17.522Z,1016.189315
2023-03-08T08:45:16.015Z,1016.185681
2023-03-08T08:50:16.089Z,1016.145785
2023-03-08T08:55:16.198Z,1016.146863
2023-03-08T09:00:16.395Z,1016.087761
2023-03-08T09:05:16.684Z,1016.130500
2023-03-08T09:10:15.844Z,1016.147648
2023-03-08T09:15:16.750Z,1016.187299
2023-03-08T09:20:15.619Z,1016.090997
2023-03-08T09:25:16.700Z,1016.133009
2023-03-08T09:30:16.003Z,1016.110284
2023-03-08T09:35:16.383Z,1016.071366
2023-03-08T09:40:15.776Z,1015.972472
2023-03-08T09:45:16.728Z,1015.914126
2023-03-08T09:50:17.024Z,1015.852938
2023-03-08T09:55:15.926Z,1015.849783
2023-03-08T10:00:16.073Z,1015.746899
2023-03-08T10:05:16.141Z,1015.709583
2023-03-08T10:10:16.970Z,1015.648317
2023-03-08T10:15:16.166Z,1015.544581
2023-03-08T10:20:16.058Z,1015.643414
2023-03-08T10:25:15.778Z,1015.644064
2023-03-08T10:30:15.880Z,1015.606355
2023-03-08T10:35:16.984Z,1015.487085
2023-03-08T10:40:16.136Z,1015.429200
2023-03-08T10:45:15.963Z,1015.369632
2023-03-08T10:50:16.140Z,1015.287643
2023-03-08T10:55:17.096Z,1015.293296
2023-03-08T11:00:16.171Z,1015.232467
2023-03-08T11:05:15.694Z,1015.230004
2023-03-08T11:10:15.561Z,1015.206668
2023-03-08T11:15:16.429Z,1015.166823
2023-03-08T11:20:16.542Z,1015.203313
2023-03-08T11:25:16.454Z,1015.261677
2023-03-08T11:30:16.254Z,1015.405921
2023-03-08T11:35:16.334Z,1015.381796
2023-03-08T11:40:17.254Z,1015.384710
2023-03-08T11:45:16.319Z,1015.307192
2023-03-08T11:50:15.646Z,1015.265102
2023-03-08T11:55:15.921Z,1015.144076
2023-03-08T12:00:16.246Z,1014.966186
2023-03-08T12:05:16.000Z,1014.943851
2023-03-08T12:10:18.940Z,1014.921655
2023-03-08T12:15:15.685Z,1014.962917
2023-03-08T12:20:16.415Z,1014.983219
2023-03-08T12:25:16.863Z,1014.942024
2023-03-08T12:30:15.663Z,1014.982469
2023-03-08T12:35:17.344Z,1015.000297
2023-03-08T12:40:16.507Z,1015.080658
2023-03-08T12:45:15.718Z,1015.082410
2023-03-08T12:50:15.906Z,1015.100875
2023-03-08T12:55:16.169Z,1015.062802
2023-03-08T13:00:16.868Z,1015.223902
2023-03-08T13:05:16.286Z,1015.236458
2023-03-08T13:10:17.150Z,1015.156650
2023-03-08T13:15:16.413Z,1015.040695
2023-03-08T13:20:16.416Z,1015.017220
2023-03-08T13:25:16.029Z,1015.077214
2023-03-08T13:30:16.912Z,1015.113671
2023-03-08T13:35:15.842Z,1015.155439
2023-03-08T13:40:16.119Z,1015.154965
2023-03-08T13:45:17.239Z,1015.214469
2023-03-08T13:50:16.509Z,1015.155639
2023-03-08T13:55:17.121Z,1015.115940
2023-03-08T14:00:16.343Z,1015.134466
2023-03-08T14:05:15.943Z,1015.133621
2023-03-08T14:10:16.321Z,1015.193536
2023-03-08T14:15:16.408Z,1015.254912
2023-03-08T14:20:17.066Z,1015.360037
2023-03-08T14:25:16.547Z,1015.322144
2023-03-08T14:30:16.404Z,1015.422106
2023-03-08T14:35:16.402Z,1015.422447
2023-03-08T14:40:16.359Z,1015.420376
2023-03-08T14:45:16.745Z,1015.500397
2023-03-08T14:50:16.358Z,1015.499705
2023-03-08T14:55:17.478Z,1015.518505
2023-03-08T15:00:16.436Z,1015.514183
2023-03-08T15:05:25.547Z,1015.516337
2023-03-08T15:10:16.158Z,1015.554889
2023-03-08T15:15:16.034Z,1015.635441
2023-03-08T15:20:17.704Z,1015.638511
2023-03-08T15:25:17.465Z,1015.700456
2023-03-08T15:30:16.971Z,1015.763339
2023-03-08T15:35:15.701Z,1015.683752
2023-03-08T15:40:16.208Z,1015.783335
2023-03-08T15:45:16.176Z,1015.863581
2023-03-08T15:50:15.676Z,1015.862778
2023-03-08T15:55:16.020Z,1015.861918
2023-03-08T16:00:18.226Z,1015.921422
2023-03-08T16:05:16.224Z,1015.983574
2023-03-08T16:10:16.257Z,1015.962985
2023-03-08T16:15:16.205Z,1015.922389
2023-03-08T16:20:16.755Z,1015.901774
2023-03-08T16:25:16.777Z,1015.980236
2023-03-08T16:30:15.682Z,1016.079256
2023-03-08T16:35:16.192Z,1016.098811
2023-03-08T16:40:16.986Z,1016.218169
2023-03-08T16:45:15.788Z,1016.277640
2023-03-08T16:50:15.623Z,1016.196484
2023-03-08T16:55:15.508Z,1016.157070
2023-03-08T17:00:15.866Z,1016.178081
2023-03-08T17:05:16.041Z,1016.157711
2023-03-08T17:10:16.080Z,1016.054708
2023-03-08T17:15:16.108Z,1016.033779
2023-03-08T17:20:16.983Z,1015.949868
2023-03-08T17:25:15.656Z,1015.892779
2023-03-08T17:30:17.652Z,1015.914593
2023-03-08T17:35:16.486Z,1015.934386
2023-03-08T17:40:16.246Z,1015.991647
2023-03-08T17:45:16.342Z,1015.950238
2023-03-08T17:50:16.281Z,1015.926410
2023-03-08T17:55:15.544Z,1015.869788
2023-03-08T18:00:16.457Z,1015.947463
2023-03-08T18:05:16.159Z,1015.982820
2023-03-08T18:10:15.941Z,1015.941446
2023-03-08T18:15:15.988Z,1015.936061
2023-03-08T18:20:16.092Z,1015.931499
2023-03-08T18:25:16.055Z,1015.930641
2023-03-08T18:30:15.709Z,1015.928764
2023-03-08T18:35:17.413Z,1015.902710
2023-03-08T18:40:16.158Z,1015.909327
2023-03-08T18:45:16.539Z,1015.903909
2023-03-08T18:50:16.073Z,1015.885661
2023-03-08T18:55:16.353Z,1015.849150
2023-03-08T19:00:16.126Z,1015.850259
2023-03-08T19:05:15.883Z,1015.805086
2023-03-08T19:10:16.857Z,1015.807367
2023-03-08T19:15:16.379Z,1015.789062
2023-03-08T19:20:16.913Z,1015.830342
2023-03-08T19:25:15.709Z,1015.830070
2023-03-08T19:30:16.479Z,1015.907681
2023-03-08T19:35:16.347Z,1015.901012
2023-03-08T19:40:15.697Z,1015.949829
2023-03-08T19:45:16.903Z,1015.974162
2023-03-08T19:50:17.655Z,1015.995990
2023-03-08T19:55:15.617Z,1015.995368
2023-03-08T20:00:16.623Z,1016.034567
2023-03-08T20:05:15.861Z,1015.975333
2023-03-08T20:10:16.806Z,1015.970369
2023-03-08T20:15:16.684Z,1015.928343
2023-03-08T20:20:21.929Z,1015.910221
2023-03-08T20:25:15.821Z,1015.904061
2023-03-08T20:30:15.932Z,1015.900357
2023-03-08T20:35:16.746Z,1015.963669
2023-03-08T20:40:16.749Z,1016.046982
2023-03-08T20:45:16.777Z,1015.990584
2023-03-08T20:50:15.509Z,1015.906103
2023-03-08T20:55:16.235Z,1015.848610
2023-03-08T21:00:16.175Z,1015.829416
2023-03-08T21:05:16.060Z,1015.887145
2023-03-08T21:10:15.772Z,1015.828067
2023-03-08T21:15:16.213Z,1015.788418
2023-03-08T21:20:15.945Z,1015.788537
2023-03-08T21:25:15.756Z,1015.830892
2023-03-08T21:30:15.561Z,1015.912161
2023-03-08T21:35:16.272Z,1015.952435
2023-03-08T21:40:16.340Z,1015.971853
2023-03-08T21:45:16.418Z,1015.930582
2023-03-08T21:50:16.852Z,1015.949639
2023-03-08T21:55:18.185Z,1015.968736
2023-03-08T22:00:16.642Z,1016.029111
2023-03-08T22:05:17.065Z,1016.092466
2023-03-08T22:10:16.398Z,1016.114400
2023-03-08T22:15:16.009Z,1016.134420
2023-03-08T22:20:15.819Z,1016.159485
2023-03-08T22:25:17.359Z,1016.307130
2023-03-08T22:30:18.841Z,1016.224218
2023-03-08T22:35:16.715Z,1016.182319
2023-03-08T22:40:16.285Z,1016.162292
2023-03-08T22:45:17.723Z,1016.140955
2023-03-08T22:50:16.639Z,1016.178908
2023-03-08T22:55:17.168Z,1016.139992
2023-03-08T23:00:16.007Z,1016.179275
2023-03-08T23:05:21.434Z,1016.239840
2023-03-08T23:10:15.902Z,1016.155746
2023-03-08T23:15:16.875Z,1016.172938
2023-03-08T23:20:16.771Z,1016.236864
2023-03-08T23:25:16.423Z,1016.258905
2023-03-08T23:30:16.074Z,1016.299235
2023-03-08T23:35:15.733Z,1016.358786
2023-03-08T23:40:16.384Z,1016.398745
2023-03-08T23:45:16.518Z,1016.419801
2023-03-08T23:50:15.933Z,1016.381731
2023-03-08T23:55:16.626Z,1016.402195
